Time;durP1;ratioP1;P1;durP2;ratioP2;P2;SDS_P1;SDS_P2;PMS_P1;PMS_P2;Temp;Humidity;BMP_temperature;BMP_pressure;BME280_temperature;BME280_humidity;BME280_pressure;Samples;Min_cycle;Max_cycle;Signal;HPM_P1;HPM_P2
2023/04/24 00:00:05;;;;;;;1.67;0.77;;;11.30;99.90;;;;;;5029835;28;20087;-46
2023/04/24 00:02:32;;;;;;;1.10;0.60;;;11.30;99.90;;;;;;5033009;28;20038;-46
2023/04/24 00:05:02;;;;;;;1.70;0.80;;;11.30;99.90;;;;;;5033193;28;20029;-46
2023/04/24 00:07:29;;;;;;;2.87;0.70;;;11.30;99.90;;;;;;5032991;28;20033;-45
2023/04/24 00:09:55;;;;;;;1.80;0.80;;;11.30;99.90;;;;;;5033229;28;20072;-49
2023/04/24 00:12:20;;;;;;;1.27;0.83;;;11.20;99.90;;;;;;5033000;28;20522;-46
2023/04/24 00:14:46;;;;;;;3.97;1.17;;;11.20;99.90;;;;;;5032823;28;20033;-46
2023/04/24 00:17:12;;;;;;;3.60;1.10;;;11.20;99.90;;;;;;5032993;28;20029;-49
2023/04/24 00:19:38;;;;;;;1.57;0.80;;;11.20;99.90;;;;;;5033092;28;20521;-46
2023/04/24 00:22:03;;;;;;;1.33;0.90;;;11.20;99.90;;;;;;5033022;28;20026;-46
2023/04/24 00:24:29;;;;;;;3.67;1.10;;;11.20;99.90;;;;;;5032910;28;20036;-48
2023/04/24 00:26:55;;;;;;;3.87;1.20;;;11.20;99.90;;;;;;5032592;28;20418;-47
2023/04/24 00:29:21;;;;;;;2.93;1.10;;;11.20;99.90;;;;;;5032914;28;20025;-47
2023/04/24 00:31:46;;;;;;;4.20;1.10;;;11.10;99.90;;;;;;4998724;28;20026;-47
2023/04/24 00:34:13;;;;;;;1.90;1.10;;;11.10;99.90;;;;;;5032642;28;20029;-46
2023/04/24 00:36:39;;;;;;;3.37;1.10;;;11.10;99.90;;;;;;5032571;28;20088;-46
2023/04/24 00:39:05;;;;;;;2.43;1.20;;;11.10;99.90;;;;;;5032515;28;20486;-46
2023/04/24 00:41:30;;;;;;;3.30;1.50;;;11.00;99.90;;;;;;5014700;28;20060;-46
2023/04/24 00:43:56;;;;;;;5.33;2.10;;;11.00;99.90;;;;;;5032565;28;20033;-49
2023/04/24 00:46:22;;;;;;;5.73;2.33;;;11.00;99.90;;;;;;5032478;28;20434;-50
2023/04/24 00:48:48;;;;;;;6.33;2.20;;;11.00;99.90;;;;;;5014681;28;20212;-47
2023/04/24 00:51:13;;;;;;;5.00;1.73;;;11.00;99.90;;;;;;5014643;28;20091;-47
2023/04/24 00:53:40;;;;;;;5.13;2.37;;;11.00;99.90;;;;;;5032149;28;20109;-48
2023/04/24 00:56:05;;;;;;;4.80;2.70;;;10.90;99.90;;;;;;5014777;28;20481;-46
2023/04/24 00:58:32;;;;;;;4.60;2.70;;;10.80;99.90;;;;;;5031916;28;20091;-46
2023/04/24 01:01:00;;;;;;;6.80;3.80;;;10.80;99.90;;;;;;5014545;28;20029;-48
2023/04/24 01:03:29;;;;;;;7.78;4.60;;;10.70;99.90;;;;;;5032095;28;20367;-46
2023/04/24 01:05:56;;;;;;;12.52;5.47;;;10.70;99.90;;;;;;5032222;28;20478;-48
2023/04/24 01:08:27;;;;;;;8.07;4.27;;;10.60;99.90;;;;;;5031824;28;20117;-48
2023/04/24 01:10:55;;;;;;;12.27;5.73;;;10.60;99.90;;;;;;5014521;28;20033;-47
2023/04/24 01:13:21;;;;;;;10.97;5.37;;;10.50;99.90;;;;;;5031745;28;20038;-48
2023/04/24 01:15:47;;;;;;;12.27;6.10;;;10.40;99.90;;;;;;5014386;28;20099;-47
2023/04/24 01:18:14;;;;;;;10.97;6.10;;;10.40;99.90;;;;;;5031569;28;20033;-47
2023/04/24 01:20:41;;;;;;;13.07;6.00;;;10.30;99.90;;;;;;5031879;28;20405;-48
2023/04/24 01:23:08;;;;;;;12.17;6.43;;;10.30;99.90;;;;;;5031690;28;20061;-47
2023/04/24 01:25:34;;;;;;;11.13;6.03;;;10.30;99.90;;;;;;5013857;28;20025;-46
2023/04/24 01:28:00;;;;;;;15.83;6.87;;;10.20;99.90;;;;;;5031711;28;20059;-46
2023/04/24 01:30:31;;;;;;;13.37;6.63;;;10.20;99.90;;;;;;5031874;28;20387;-47
2023/04/24 01:32:59;;;;;;;14.50;7.53;;;10.10;99.90;;;;;;5031723;28;20600;-46
2023/04/24 01:35:25;;;;;;;11.67;6.10;;;10.10;99.90;;;;;;5031446;28;20036;-46
2023/04/24 01:37:51;;;;;;;9.80;5.97;;;10.10;99.90;;;;;;5031284;28;20501;-51
2023/04/24 01:40:16;;;;;;;13.07;5.30;;;10.10;99.90;;;;;;5031478;28;20116;-47
2023/04/24 01:42:42;;;;;;;7.17;4.60;;;9.90;99.90;;;;;;5013694;28;20274;-47
2023/04/24 01:45:11;;;;;;;8.57;4.77;;;9.90;99.90;;;;;;5031270;28;20051;-47
2023/04/24 01:47:37;;;;;;;9.50;5.07;;;9.90;99.90;;;;;;5013329;28;20041;-47
2023/04/24 01:50:04;;;;;;;9.40;4.87;;;9.90;99.90;;;;;;5031278;28;20486;-48
2023/04/24 01:52:33;;;;;;;7.30;4.50;;;9.90;99.90;;;;;;5013538;28;20485;-46
2023/04/24 01:55:05;;;;;;;8.77;4.70;;;10.00;99.90;;;;;;5031336;28;20033;-46
2023/04/24 01:57:32;;;;;;;8.60;4.53;;;9.90;99.90;;;;;;5030728;28;20029;-46
2023/04/24 01:59:58;;;;;;;7.73;5.13;;;9.90;99.90;;;;;;5013451;28;20025;-46
2023/04/24 02:02:27;;;;;;;10.53;5.20;;;9.90;99.90;;;;;;5031058;28;20549;-46
2023/04/24 02:04:54;;;;;;;10.10;5.22;;;9.90;99.90;;;;;;5030916;28;20064;-46
2023/04/24 02:07:20;;;;;;;9.07;5.43;;;9.90;99.90;;;;;;5013214;28;20040;-46
2023/04/24 02:09:46;;;;;;;11.80;5.90;;;9.90;99.90;;;;;;5013249;28;20027;-47
2023/04/24 02:12:11;;;;;;;9.93;5.80;;;9.80;99.90;;;;;;5013348;28;20029;-47
2023/04/24 02:14:37;;;;;;;12.00;6.53;;;9.80;99.90;;;;;;5013003;28;20033;-48
2023/04/24 02:17:03;;;;;;;11.77;6.70;;;9.80;99.90;;;;;;5030590;28;20032;-46
2023/04/24 02:19:29;;;;;;;10.50;6.33;;;9.80;99.90;;;;;;5013015;28;20025;-46
2023/04/24 02:21:55;;;;;;;11.23;6.40;;;9.80;99.90;;;;;;5030768;28;20029;-49
2023/04/24 02:24:20;;;;;;;12.77;6.33;;;9.80;99.90;;;;;;5030094;28;20017;-48
2023/04/24 02:26:46;;;;;;;15.33;7.97;;;9.80;99.90;;;;;;5030471;28;20155;-47
2023/04/24 02:29:12;;;;;;;16.27;8.47;;;9.70;99.90;;;;;;5030786;28;20040;-46
2023/04/24 02:31:37;;;;;;;13.80;7.93;;;9.70;99.90;;;;;;5030673;28;20053;-47
2023/04/24 02:34:03;;;;;;;16.20;7.73;;;9.70;99.90;;;;;;5030505;28;20433;-49
2023/04/24 02:36:30;;;;;;;16.50;8.33;;;9.60;99.90;;;;;;5030394;28;20546;-47
2023/04/24 02:38:55;;;;;;;18.10;9.33;;;9.70;99.90;;;;;;5012645;28;20029;-46
2023/04/24 02:41:21;;;;;;;16.20;7.87;;;9.60;99.90;;;;;;5012892;28;20079;-46
2023/04/24 02:43:47;;;;;;;20.07;11.10;;;9.70;99.90;;;;;;5030362;28;20026;-47
2023/04/24 02:46:13;;;;;;;20.90;10.23;;;9.70;99.90;;;;;;5012777;28;20544;-47
2023/04/24 02:48:39;;;;;;;16.93;10.17;;;9.70;99.90;;;;;;5030090;28;20116;-47
2023/04/24 02:51:06;;;;;;;20.03;10.57;;;9.60;99.90;;;;;;5030812;28;20029;-45
2023/04/24 02:53:32;;;;;;;19.47;9.80;;;9.70;99.90;;;;;;5030401;28;20033;-46
2023/04/24 02:55:58;;;;;;;16.70;9.73;;;9.70;99.90;;;;;;5030556;28;20044;-46
2023/04/24 02:58:24;;;;;;;23.23;10.17;;;9.70;99.90;;;;;;5012317;28;20057;-46
2023/04/24 03:00:55;;;;;;;20.00;9.53;;;9.70;99.90;;;;;;5012570;28;20521;-46
2023/04/24 03:03:21;;;;;;;18.07;9.13;;;9.60;99.90;;;;;;5012536;28;20025;-47
2023/04/24 03:05:47;;;;;;;17.70;9.67;;;9.60;99.90;;;;;;5012608;28;20021;-47
2023/04/24 03:08:14;;;;;;;18.57;10.97;;;9.60;99.90;;;;;;5012411;28;20071;-47
2023/04/24 03:10:40;;;;;;;17.83;9.57;;;9.60;99.90;;;;;;5012464;28;20044;-47
2023/04/24 03:13:07;;;;;;;22.23;9.47;;;9.60;99.90;;;;;;5030765;28;20033;-49
2023/04/24 03:15:33;;;;;;;17.77;9.20;;;9.60;99.90;;;;;;5029923;28;20036;-46
2023/04/24 03:18:00;;;;;;;18.33;9.47;;;9.60;99.90;;;;;;5030047;28;20026;-46
2023/04/24 03:20:26;;;;;;;21.83;9.30;;;9.60;99.90;;;;;;5030211;28;20478;-46
2023/04/24 03:22:54;;;;;;;20.30;9.20;;;9.60;99.90;;;;;;5012543;28;20026;-48
2023/04/24 03:25:20;;;;;;;17.07;9.73;;;9.60;99.90;;;;;;5012224;28;20379;-47
2023/04/24 03:27:46;;;;;;;16.50;8.37;;;9.60;99.90;;;;;;5012263;28;20033;-47
2023/04/24 03:30:23;;;;;;;18.83;9.00;;;9.60;99.90;;;;;;5012524;28;20036;-47
2023/04/24 03:32:54;;;;;;;18.90;8.50;;;9.60;99.90;;;;;;5012407;28;20037;-47
2023/04/24 03:35:25;;;;;;;16.33;9.00;;;9.60;99.90;;;;;;5012253;28;20508;-49
2023/04/24 03:37:52;;;;;;;19.27;9.40;;;9.70;99.90;;;;;;5015428;28;20239;-46
2023/04/24 03:40:49;;;;;;;16.57;8.20;;;9.70;99.90;;;;;;5016069;28;20379;-46
2023/04/24 03:43:29;;;;;;;;;;;9.70;99.90;;;;;;5016426;28;20179;-46
2023/04/24 03:45:57;;;;;;;16.37;9.20;;;9.70;99.90;;;;;;5016041;28;19909;-46
2023/04/24 03:48:23;;;;;;;15.93;8.67;;;9.60;99.90;;;;;;5015744;28;20033;-47
2023/04/24 03:50:49;;;;;;;18.10;8.73;;;9.60;99.90;;;;;;5015812;28;20030;-47
2023/04/24 03:53:15;;;;;;;17.80;8.70;;;9.60;99.90;;;;;;5015780;28;20104;-46
2023/04/24 03:55:41;;;;;;;14.47;7.20;;;9.70;99.90;;;;;;5015519;28;20053;-46
2023/04/24 03:58:08;;;;;;;11.43;4.63;;;9.70;99.90;;;;;;5015393;28;20040;-46
2023/04/24 04:00:34;;;;;;;9.93;4.50;;;9.70;99.90;;;;;;5015596;28;20029;-47
2023/04/24 04:03:22;;;;;;;8.90;3.50;;;9.70;99.90;;;;;;5033056;28;20029;-46
2023/04/24 04:05:49;;;;;;;6.07;2.37;;;9.70;99.90;;;;;;5015561;28;20049;-46
2023/04/24 04:08:15;;;;;;;4.30;2.00;;;9.70;99.90;;;;;;5033041;28;20052;-48
2023/04/24 04:10:41;;;;;;;5.60;2.63;;;9.70;99.90;;;;;;5015581;28;20309;-46
2023/04/24 04:13:06;;;;;;;4.83;2.53;;;9.70;99.90;;;;;;5033300;28;20398;-47
2023/04/24 04:15:33;;;;;;;4.50;2.37;;;9.70;99.90;;;;;;5015304;28;20025;-48
2023/04/24 04:17:59;;;;;;;3.17;1.53;;;9.70;99.90;;;;;;5014937;28;20561;-50
2023/04/24 04:20:25;;;;;;;2.43;1.40;;;9.80;99.90;;;;;;5015223;28;20129;-46
2023/04/24 04:22:51;;;;;;;3.37;1.83;;;9.70;99.90;;;;;;5015337;28;20056;-47
2023/04/24 04:25:24;;;;;;;3.67;1.93;;;9.70;99.90;;;;;;5015060;28;20053;-47
2023/04/24 04:27:52;;;;;;;3.67;2.17;;;9.70;99.90;;;;;;5014883;28;20029;-45
2023/04/24 04:30:18;;;;;;;3.33;1.57;;;9.60;99.90;;;;;;5015243;28;20371;-47
2023/04/24 04:32:55;;;;;;;2.53;1.10;;;9.60;99.90;;;;;;5015160;28;20082;-46
2023/04/24 04:35:21;;;;;;;4.50;1.47;;;9.70;99.90;;;;;;5014889;28;20025;-48
2023/04/24 04:37:47;;;;;;;3.13;1.97;;;9.70;99.90;;;;;;5014508;28;20036;-48
2023/04/24 04:40:33;;;;;;;5.33;1.33;;;9.70;99.90;;;;;;5021951;28;20100;-46
2023/04/24 04:43:03;;;;;;;2.10;1.50;;;9.70;99.90;;;;;;5014927;28;20026;-46
2023/04/24 04:45:38;;;;;;;2.47;1.40;;;9.70;99.90;;;;;;5014698;28;20029;-46
2023/04/24 04:48:28;;;;;;;2.73;1.40;;;9.60;99.90;;;;;;5021604;28;20088;-46
2023/04/24 04:50:56;;;;;;;2.92;1.70;;;9.70;99.90;;;;;;5014697;28;20022;-46
2023/04/24 04:53:22;;;;;;;2.97;1.70;;;9.70;99.90;;;;;;5014506;28;20082;-46
2023/04/24 04:55:48;;;;;;;3.97;1.80;;;9.70;99.90;;;;;;5032442;28;20029;-49
2023/04/24 04:58:15;;;;;;;1.63;1.13;;;9.60;99.90;;;;;;5014409;28;20060;-46
2023/04/24 05:00:43;;;;;;;8.53;2.13;;;9.60;99.90;;;;;;5014722;28;20036;-50
2023/04/24 05:03:22;;;;;;;4.30;2.23;;;9.60;99.90;;;;;;5014463;28;20490;-46
2023/04/24 05:05:55;;;;;;;2.63;1.53;;;9.70;99.90;;;;;;5014399;28;20025;-48
2023/04/24 05:08:22;;;;;;;2.10;1.03;;;9.60;99.90;;;;;;5014298;28;20057;-46
2023/04/24 05:10:47;;;;;;;4.43;2.03;;;9.60;99.90;;;;;;5014334;28;20065;-47
2023/04/24 05:13:13;;;;;;;3.87;2.43;;;9.60;99.90;;;;;;5014394;28;20033;-46
2023/04/24 05:15:39;;;;;;;4.83;1.33;;;9.50;99.90;;;;;;5014261;28;20036;-48
2023/04/24 05:18:06;;;;;;;2.87;1.60;;;9.50;99.90;;;;;;5014089;28;20029;-46
2023/04/24 05:20:32;;;;;;;3.47;1.77;;;9.40;99.90;;;;;;5014195;28;20025;-47
2023/04/24 05:22:58;;;;;;;3.90;1.73;;;9.30;99.90;;;;;;5014238;28;20045;-50
2023/04/24 05:25:25;;;;;;;3.40;1.83;;;9.20;99.90;;;;;;5014155;28;20067;-48
2023/04/24 05:27:55;;;;;;;4.97;1.10;;;9.10;99.90;;;;;;5014007;28;20091;-47
2023/04/24 05:30:22;;;;;;;3.60;1.80;;;9.00;99.90;;;;;;5014211;28;20481;-46
2023/04/24 05:32:49;;;;;;;3.53;1.53;;;8.90;99.90;;;;;;5014239;28;20025;-47
2023/04/24 05:35:15;;;;;;;2.67;1.40;;;8.90;99.90;;;;;;5031786;28;20504;-48
2023/04/24 05:37:40;;;;;;;4.50;1.67;;;8.80;99.90;;;;;;5013700;28;20479;-46
2023/04/24 05:40:08;;;;;;;3.70;1.87;;;8.80;99.90;;;;;;5014168;28;20025;-46
2023/04/24 05:42:34;;;;;;;3.53;1.73;;;8.80;99.90;;;;;;5014130;28;20240;-48
2023/04/24 05:45:00;;;;;;;2.23;1.50;;;8.80;99.90;;;;;;5032061;28;20097;-47
2023/04/24 05:47:26;;;;;;;4.60;1.70;;;8.80;99.90;;;;;;5013802;28;20080;-48
2023/04/24 05:49:53;;;;;;;3.27;1.60;;;8.80;99.90;;;;;;5013814;28;20053;-52
2023/04/24 05:52:19;;;;;;;3.33;1.37;;;8.80;99.90;;;;;;5014135;28;20029;-47
2023/04/24 05:54:47;;;;;;;5.93;1.50;;;8.80;99.90;;;;;;5013777;28;20040;-48
2023/04/24 05:57:17;;;;;;;3.80;1.47;;;8.90;99.90;;;;;;5013623;28;20394;-48
2023/04/24 05:59:51;;;;;;;3.00;1.40;;;8.90;99.90;;;;;;5013023;28;20029;-47
2023/04/24 06:02:17;;;;;;;1.93;1.17;;;9.00;99.90;;;;;;5013528;28;20036;-46
2023/04/24 06:04:44;;;;;;;2.70;1.37;;;9.00;99.90;;;;;;5013274;28;20163;-46
2023/04/24 06:07:11;;;;;;;2.47;1.60;;;8.90;99.90;;;;;;5013395;28;20076;-47
2023/04/24 06:09:37;;;;;;;2.27;1.47;;;9.00;99.90;;;;;;5013616;28;20564;-47
2023/04/24 06:12:03;;;;;;;1.97;1.17;;;8.90;99.90;;;;;;5013449;28;20029;-48
2023/04/24 06:14:42;;;;;;;;;;;8.80;99.90;;;;;;5013552;28;20025;-46
2023/04/24 06:17:32;;;;;;;2.97;1.17;;;8.80;99.90;;;;;;5029109;28;20382;-46
2023/04/24 06:19:58;;;;;;;3.03;1.43;;;8.80;99.90;;;;;;5012681;28;20444;-47
2023/04/24 06:22:24;;;;;;;2.17;1.27;;;8.80;99.90;;;;;;5013103;28;20025;-46
2023/04/24 06:24:50;;;;;;;2.00;1.00;;;8.80;99.90;;;;;;5012882;28;20032;-48
2023/04/24 06:27:17;;;;;;;2.80;1.37;;;8.80;99.90;;;;;;5012901;28;20031;-46
2023/04/24 06:29:42;;;;;;;2.57;1.20;;;8.80;99.90;;;;;;5030802;28;20021;-47
2023/04/24 06:32:08;;;;;;;1.40;1.30;;;8.80;99.90;;;;;;5013008;28;20033;-48
2023/04/24 06:34:35;;;;;;;3.67;1.27;;;8.80;99.90;;;;;;5030617;28;20455;-47
2023/04/24 06:37:01;;;;;;;3.13;2.00;;;8.80;99.90;;;;;;5012570;28;20032;-47
2023/04/24 06:39:27;;;;;;;3.43;1.73;;;8.80;99.90;;;;;;5030627;28;20056;-47
2023/04/24 06:41:53;;;;;;;3.10;1.30;;;8.80;99.90;;;;;;5030518;28;20061;-47
2023/04/24 06:44:19;;;;;;;3.73;1.40;;;8.80;99.90;;;;;;5012693;28;20390;-47
2023/04/24 06:46:45;;;;;;;1.93;1.10;;;8.70;99.90;;;;;;5030225;28;20036;-47
2023/04/24 06:49:11;;;;;;;2.77;1.07;;;8.60;99.90;;;;;;5030453;28;20060;-47
2023/04/24 06:51:37;;;;;;;6.47;1.57;;;8.60;99.90;;;;;;5030415;28;20079;-47
2023/04/24 06:54:02;;;;;;;4.27;1.67;;;8.60;99.90;;;;;;5030369;28;20502;-49
2023/04/24 06:56:31;;;;;;;3.03;1.40;;;8.70;99.90;;;;;;5030223;28;20508;-47
2023/04/24 06:58:57;;;;;;;2.58;1.27;;;8.70;99.90;;;;;;5030349;28;20034;-59
2023/04/24 07:01:22;;;;;;;1.30;0.90;;;8.70;99.90;;;;;;5030430;28;20098;-49
2023/04/24 07:03:48;;;;;;;3.13;1.47;;;8.90;99.90;;;;;;5030125;28;20038;-49
2023/04/24 07:06:16;;;;;;;3.50;1.50;;;8.90;99.90;;;;;;5030277;28;20191;-48
2023/04/24 07:08:41;;;;;;;4.07;1.67;;;8.90;99.90;;;;;;5030067;28;20386;-47
2023/04/24 07:11:07;;;;;;;5.93;1.33;;;8.90;99.90;;;;;;5032771;28;20029;-47
2023/04/24 07:13:35;;;;;;;3.70;1.27;;;8.90;99.90;;;;;;5034337;28;20439;-48
2023/04/24 07:16:01;;;;;;;1.87;0.93;;;8.80;99.90;;;;;;5034170;28;20037;-48
2023/04/24 07:18:26;;;;;;;2.80;1.10;;;8.80;99.90;;;;;;5034025;28;20493;-48
2023/04/24 07:20:52;;;;;;;2.10;0.70;;;8.80;99.90;;;;;;5034129;28;20034;-49
2023/04/24 07:23:19;;;;;;;0.33;0.23;;;8.70;99.90;;;;;;5033910;28;20031;-52
2023/04/24 07:25:45;;;;;;;0.90;0.60;;;8.80;99.90;;;;;;5034035;28;20033;-49
2023/04/24 07:28:10;;;;;;;0.97;0.50;;;8.80;99.90;;;;;;5033933;28;20041;-53
2023/04/24 07:30:36;;;;;;;0.47;0.40;;;8.80;99.90;;;;;;5034105;28;20040;-50
2023/04/24 07:33:02;;;;;;;0.30;0.30;;;8.70;99.90;;;;;;5034110;28;20045;-49
2023/04/24 07:35:27;;;;;;;0.97;0.60;;;8.70;99.90;;;;;;5033718;28;20030;-46
2023/04/24 07:37:53;;;;;;;0.63;0.30;;;8.70;99.90;;;;;;5046296;22;20024;-58
2023/04/24 07:40:20;;;;;;;0.43;0.43;;;8.70;99.90;;;;;;5033746;28;20394;-58
2023/04/24 07:42:48;;;;;;;0.47;0.10;;;8.60;99.90;;;;;;5033893;28;20128;-58
2023/04/24 07:45:15;;;;;;;0.63;0.20;;;8.50;99.90;;;;;;5033488;28;20084;-58
2023/04/24 07:47:45;;;;;;;0.23;0.23;;;8.50;99.90;;;;;;5033540;28;20034;-58
2023/04/24 07:50:12;;;;;;;0.67;0.20;;;8.40;99.90;;;;;;5033513;28;20505;-58
2023/04/24 07:52:38;;;;;;;0.70;0.40;;;8.40;99.90;;;;;;5033527;28;20479;-58
2023/04/24 07:55:04;;;;;;;1.63;0.67;;;8.40;99.90;;;;;;5033289;28;20099;-58
2023/04/24 07:57:30;;;;;;;1.30;0.70;;;8.30;99.90;;;;;;5033091;28;20040;-58
2023/04/24 07:59:56;;;;;;;0.30;0.20;;;8.30;99.90;;;;;;5033355;28;20033;-58
2023/04/24 08:02:26;;;;;;;0.67;0.30;;;8.20;99.90;;;;;;5033318;28;20029;-58
2023/04/24 08:04:53;;;;;;;0.53;0.30;;;8.20;99.90;;;;;;5032890;28;20528;-58
2023/04/24 08:07:19;;;;;;;0.10;0.10;;;8.20;99.90;;;;;;5032972;28;20029;-58
2023/04/24 08:09:45;;;;;;;0.93;0.20;;;8.20;99.90;;;;;;5033168;28;20034;-58
2023/04/24 08:12:11;;;;;;;0.20;0.20;;;8.20;99.90;;;;;;5033321;28;20029;-58
2023/04/24 08:14:36;;;;;;;0.53;0.20;;;8.20;99.90;;;;;;5033088;28;20039;-57
2023/04/24 08:17:03;;;;;;;0.20;0.17;;;8.20;99.90;;;;;;5032901;28;20072;-58
2023/04/24 08:19:29;;;;;;;0.20;0.10;;;8.20;99.90;;;;;;5032985;28;20036;-58
2023/04/24 08:21:54;;;;;;;0.10;0.10;;;8.20;99.90;;;;;;5032152;28;20029;-58
2023/04/24 08:24:20;;;;;;;2.90;0.90;;;8.10;99.90;;;;;;5033017;28;20030;-59
2023/04/24 08:26:50;;;;;;;3.93;0.30;;;8.20;99.90;;;;;;5032907;28;20112;-59
2023/04/24 08:29:15;;;;;;;0.68;0.22;;;8.20;99.90;;;;;;5032895;28;20029;-59
2023/04/24 08:31:41;;;;;;;0.60;0.37;;;8.20;99.90;;;;;;5032939;28;20087;-58
2023/04/24 08:34:07;;;;;;;0.40;0.27;;;8.30;99.90;;;;;;5032366;28;20053;-59
2023/04/24 08:36:33;;;;;;;0.30;0.30;;;8.20;99.90;;;;;;5032460;28;20042;-59
2023/04/24 08:38:59;;;;;;;0.10;0.10;;;8.30;99.90;;;;;;5032504;28;20045;-59
2023/04/24 08:41:26;;;;;;;0.17;0.17;;;8.40;99.90;;;;;;5032646;28;20022;-59
2023/04/24 08:43:52;;;;;;;0.20;0.10;;;8.40;99.90;;;;;;5032510;28;20053;-59
2023/04/24 08:46:19;;;;;;;0.00;0.00;;;8.50;99.90;;;;;;5032439;28;20092;-59
2023/04/24 08:48:45;;;;;;;0.30;0.20;;;8.60;99.90;;;;;;5032355;28;20069;-58
2023/04/24 08:51:12;;;;;;;0.00;0.00;;;8.60;99.90;;;;;;5032526;28;20064;-59
2023/04/24 08:53:38;;;;;;;0.50;0.30;;;8.70;99.90;;;;;;5032266;28;20040;-59
2023/04/24 08:56:04;;;;;;;1.00;0.00;;;8.70;99.90;;;;;;5032426;28;20600;-59
2023/04/24 08:58:31;;;;;;;0.30;0.17;;;8.80;99.90;;;;;;5032037;28;20474;-58
2023/04/24 09:00:58;;;;;;;0.13;0.13;;;8.80;99.90;;;;;;5032428;28;20033;-58
2023/04/24 09:03:25;;;;;;;0.53;0.23;;;8.70;99.90;;;;;;5032087;28;20038;-59
2023/04/24 09:05:54;;;;;;;0.57;0.37;;;8.70;99.90;;;;;;5032261;28;20410;-58
2023/04/24 09:08:22;;;;;;;5.88;1.90;;;9.00;99.90;;;;;;5031987;28;20026;-58
2023/04/24 09:10:48;;;;;;;1.80;1.20;;;8.90;99.90;;;;;;5014354;28;20519;-58
2023/04/24 09:13:14;;;;;;;2.30;1.20;;;8.80;99.90;;;;;;5031977;28;20116;-59
2023/04/24 09:15:40;;;;;;;1.77;1.00;;;8.70;99.90;;;;;;5031748;28;20029;-58
2023/04/24 09:18:06;;;;;;;1.30;1.03;;;8.60;99.90;;;;;;5031376;28;20079;-58
2023/04/24 09:20:33;;;;;;;3.00;1.13;;;8.60;99.90;;;;;;5031883;28;20472;-58
2023/04/24 09:22:59;;;;;;;2.10;1.13;;;8.60;99.90;;;;;;5031840;28;20132;-58
2023/04/24 09:25:35;;;;;;;4.20;1.80;;;8.60;99.90;;;;;;5031564;28;20116;-58
2023/04/24 09:28:06;;;;;;;2.80;1.57;;;8.60;99.90;;;;;;5031404;28;20129;-58
2023/04/24 09:30:32;;;;;;;1.70;1.00;;;8.60;99.90;;;;;;5031575;28;20025;-59
2023/04/24 09:33:15;;;;;;;2.00;1.30;;;8.60;99.90;;;;;;5031750;28;20029;-58
2023/04/24 09:35:52;;;;;;;2.57;1.20;;;8.50;99.90;;;;;;5031632;28;20034;-58
2023/04/24 09:38:18;;;;;;;3.00;1.33;;;8.40;99.90;;;;;;5030005;28;20037;-59
2023/04/24 09:40:44;;;;;;;2.40;1.40;;;8.40;99.90;;;;;;5031256;28;20033;-58
2023/04/24 09:43:13;;;;;;;2.43;1.67;;;8.40;99.90;;;;;;5031660;28;20090;-59
2023/04/24 09:45:39;;;;;;;4.07;2.60;;;8.30;99.90;;;;;;5031374;28;20029;-58
2023/04/24 09:48:08;;;;;;;2.80;1.57;;;8.30;99.90;;;;;;5031038;28;20257;-58
2023/04/24 09:50:34;;;;;;;3.22;1.83;;;8.30;99.90;;;;;;5031362;28;20025;-58
2023/04/24 09:53:05;;;;;;;3.40;1.93;;;8.40;99.90;;;;;;5013556;28;20127;-58
2023/04/24 09:55:31;;;;;;;2.43;1.40;;;8.40;99.90;;;;;;5031015;28;20065;-59
2023/04/24 09:58:04;;;;;;;4.90;2.40;;;8.40;99.90;;;;;;5030872;28;20091;-58
2023/04/24 10:00:33;;;;;;;5.13;1.83;;;8.40;99.90;;;;;;5031142;28;20098;-59
2023/04/24 10:03:01;;;;;;;2.55;1.80;;;8.40;99.90;;;;;;5031163;28;20034;-58
2023/04/24 10:05:30;;;;;;;2.60;1.50;;;8.40;99.90;;;;;;5031031;28;20299;-58
2023/04/24 10:08:06;;;;;;;2.83;1.10;;;8.40;99.90;;;;;;5030690;28;20029;-58
2023/04/24 10:10:33;;;;;;;1.73;1.10;;;8.50;99.90;;;;;;5031176;28;20431;-58
2023/04/24 10:13:01;;;;;;;2.00;1.47;;;8.50;99.90;;;;;;5030851;28;20045;-58
2023/04/24 10:15:27;;;;;;;2.40;1.43;;;8.50;99.90;;;;;;5030766;28;20053;-59
2023/04/24 10:17:53;;;;;;;4.27;1.30;;;8.60;99.90;;;;;;5030590;28;20033;-59
2023/04/24 10:20:23;;;;;;;2.67;1.93;;;8.70;99.90;;;;;;5030655;28;20461;-58
2023/04/24 10:22:51;;;;;;;3.50;1.77;;;8.70;99.90;;;;;;5031006;28;20053;-59
2023/04/24 10:25:28;;;;;;;2.40;1.43;;;8.70;99.90;;;;;;5030908;28;20049;-58
2023/04/24 10:27:59;;;;;;;2.77;1.30;;;8.80;99.90;;;;;;5030424;28;20033;-59
2023/04/24 10:30:29;;;;;;;2.70;1.00;;;8.80;99.90;;;;;;5030638;28;20037;-58
2023/04/24 10:32:55;;;;;;;11.87;1.00;;;8.90;99.90;;;;;;5030663;28;20060;-59
2023/04/24 10:35:25;;;;;;;2.03;1.00;;;9.00;99.90;;;;;;5030578;28;20572;-58
2023/04/24 10:38:13;;;;;;;1.53;1.10;;;8.90;99.90;;;;;;5030060;28;20026;-58
2023/04/24 10:40:39;;;;;;;1.90;1.37;;;8.90;99.90;;;;;;5030622;28;20581;-59
2023/04/24 10:43:07;;;;;;;2.30;0.97;;;9.00;99.90;;;;;;5030482;28;20311;-59
2023/04/24 10:45:34;;;;;;;3.85;1.42;;;9.00;99.90;;;;;;5029845;28;20029;-58
2023/04/24 10:48:10;;;;;;;1.83;0.90;;;9.00;99.90;;;;;;5030185;28;20034;-58
2023/04/24 10:50:44;;;;;;;1.50;0.90;;;8.90;99.90;;;;;;5030419;28;20025;-58
2023/04/24 10:53:18;;;;;;;3.93;0.90;;;9.00;99.90;;;;;;5030323;28;20498;-59
2023/04/24 10:55:48;;;;;;;1.30;0.70;;;9.00;99.90;;;;;;5030312;28;20033;-59
2023/04/24 10:58:16;;;;;;;2.20;1.13;;;9.10;99.90;;;;;;5030040;28;20029;-59
2023/04/24 11:00:44;;;;;;;1.43;0.77;;;9.20;99.90;;;;;;5030229;28;20112;-59
2023/04/24 11:03:50;;;;;;;1.90;0.80;;;9.30;99.90;;;;;;5030234;28;20471;-59
2023/04/24 11:06:27;;;;;;;1.03;0.60;;;9.60;99.90;;;;;;4990595;28;20041;-59
2023/04/24 11:09:03;;;;;;;1.27;0.90;;;9.90;99.90;;;;;;5030002;28;20029;-59
2023/04/24 11:11:30;;;;;;;1.20;1.03;;;10.10;99.90;;;;;;5030181;28;20052;-58
2023/04/24 11:13:56;;;;;;;1.33;0.93;;;10.30;99.90;;;;;;5029710;28;20395;-59
2023/04/24 11:16:40;;;;;;;1.83;1.13;;;10.40;99.90;;;;;;5030021;28;20477;-59
2023/04/24 11:19:18;;;;;;;1.37;1.07;;;10.30;99.90;;;;;;5030198;28;20033;-58
2023/04/24 11:21:47;;;;;;;1.37;0.90;;;10.10;99.90;;;;;;5030373;28;20045;-59
2023/04/24 11:24:23;;;;;;;1.35;0.88;;;10.00;99.90;;;;;;5029941;28;20041;-58
2023/04/24 11:27:11;;;;;;;1.83;0.93;;;9.80;99.90;;;;;;5030337;28;20033;-58
2023/04/24 11:29:49;;;;;;;1.47;0.83;;;9.60;99.90;;;;;;5015761;28;20244;-59
2023/04/24 11:32:23;;;;;;;0.60;0.40;;;9.40;99.90;;;;;;5030138;28;20107;-59
2023/04/24 11:34:51;;;;;;;0.77;0.43;;;9.40;99.90;;;;;;5029963;28;20025;-58
2023/04/24 11:37:17;;;;;;;0.67;0.50;;;9.40;99.90;;;;;;5029811;28;20077;-59
2023/04/24 11:39:43;;;;;;;1.70;0.97;;;9.50;99.90;;;;;;5029664;28;20502;-58
2023/04/24 11:42:15;;;;;;;1.50;0.50;;;9.70;99.90;;;;;;5029723;28;20057;-59
2023/04/24 11:44:42;;;;;;;1.13;0.63;;;9.70;99.90;;;;;;5029943;28;20026;-59
2023/04/24 11:47:08;;;;;;;2.33;1.00;;;10.00;99.90;;;;;;5029728;28;20021;-59
2023/04/24 11:49:36;;;;;;;1.23;0.80;;;10.10;99.90;;;;;;5029856;28;20041;-58
2023/04/24 11:52:02;;;;;;;0.60;0.40;;;10.10;99.90;;;;;;5029793;28;20116;-59
2023/04/24 11:54:28;;;;;;;0.93;0.73;;;10.30;99.90;;;;;;5029599;28;20171;-59
2023/04/24 11:56:56;;;;;;;1.27;0.63;;;10.40;99.90;;;;;;5030145;28;20033;-59
2023/04/24 11:59:22;;;;;;;2.10;0.60;;;10.60;99.90;;;;;;5033156;28;20108;-59
2023/04/24 12:01:49;;;;;;;1.40;0.87;;;10.60;99.90;;;;;;5033288;28;20167;-59
2023/04/24 12:04:16;;;;;;;1.20;0.67;;;10.60;99.90;;;;;;5033040;28;20029;-59
2023/04/24 12:07:02;;;;;;;1.40;0.60;;;10.60;99.90;;;;;;5033040;28;20101;-59
2023/04/24 12:09:28;;;;;;;0.90;0.63;;;10.50;99.90;;;;;;5033405;28;20040;-59
2023/04/24 12:11:57;;;;;;;2.10;0.80;;;10.40;99.90;;;;;;5033328;28;20510;-59
2023/04/24 12:14:24;;;;;;;0.77;0.50;;;10.30;99.90;;;;;;5032875;28;20164;-59
2023/04/24 12:16:52;;;;;;;0.97;0.60;;;10.30;99.90;;;;;;5032757;28;20034;-59
2023/04/24 12:19:22;;;;;;;4.07;0.68;;;10.30;99.90;;;;;;5032661;28;20041;-59
2023/04/24 12:22:05;;;;;;;1.50;0.87;;;10.10;99.90;;;;;;5032929;28;20525;-59
2023/04/24 12:24:32;;;;;;;0.40;0.40;;;10.00;99.90;;;;;;5015054;28;20394;-59
2023/04/24 12:27:01;;;;;;;0.20;0.20;;;10.00;99.90;;;;;;5032624;28;20109;-58
2023/04/24 12:29:27;;;;;;;0.50;0.40;;;10.10;99.90;;;;;;5032582;28;20045;-59
2023/04/24 12:31:52;;;;;;;0.70;0.60;;;10.10;99.90;;;;;;5032831;28;20025;-58
2023/04/24 12:34:20;;;;;;;0.27;0.27;;;10.20;99.90;;;;;;5032629;28;20029;-58
2023/04/24 12:36:46;;;;;;;1.23;1.07;;;10.30;99.90;;;;;;5032641;28;20038;-59
2023/04/24 12:39:17;;;;;;;2.13;0.93;;;10.30;99.90;;;;;;5032283;28;20026;-59
2023/04/24 12:41:54;;;;;;;0.70;0.63;;;10.30;99.90;;;;;;5032651;28;20030;-59
2023/04/24 12:44:19;;;;;;;0.97;0.57;;;10.20;99.90;;;;;;5032374;28;20490;-59
2023/04/24 12:46:45;;;;;;;0.40;0.40;;;10.30;99.90;;;;;;5032619;28;20126;-59
2023/04/24 12:49:11;;;;;;;0.30;0.30;;;10.40;99.90;;;;;;5032492;28;20029;-58
2023/04/24 12:51:36;;;;;;;0.50;0.40;;;10.70;99.90;;;;;;5032511;28;20486;-59
2023/04/24 12:54:02;;;;;;;0.33;0.30;;;10.80;99.90;;;;;;5032141;28;20025;-59
2023/04/24 12:56:28;;;;;;;2.80;0.93;;;10.90;99.90;;;;;;5032079;28;20493;-59